<?xml version="1.0" encoding="UTF-8" standalone="no" ?>
<gpx xmlns="http://www.topografix.com/GPX/1/1" xmlns:xsi="http://www.w3.org/2001/XMLSchema-instance" xsi:schemaLocation="http://www.topografix.com/GPX/1/1 http://www.topografix.com/GPX/1/1/gpx.xsd" version="1.1" creator="VisuGPX - https://www.visugpx.com">
  <metadata>
    <name>Rando Valbonne - Examen</name>
  </metadata>
  <trk>
    <name><![CDATA[Rando Valbonne - Examen]]></name>
    <trkseg>
      <trkpt lat="43.63106" lon="7.02426">
        <ele>177</ele>
        <time>2021-12-11T17:50:29+01:00</time>
      </trkpt>
      <trkpt lat="43.63052" lon="7.02594">
        <ele>172</ele>
        <time>2021-12-11T17:50:34+01:00</time>
      </trkpt>
      <trkpt lat="43.63034" lon="7.02589">
        <ele>175</ele>
        <time>2021-12-11T17:50:39+01:00</time>
      </trkpt>
      <trkpt lat="43.63014" lon="7.02673">
        <ele>170</ele>
        <time>2021-12-11T17:50:44+01:00</time>
      </trkpt>
      <trkpt lat="43.62966" lon="7.02755">
        <ele>164</ele>
        <time>2021-12-11T17:50:49+01:00</time>
      </trkpt>
      <trkpt lat="43.63065" lon="7.02727">
        <ele>165</ele>
        <time>2021-12-11T17:50:54+01:00</time>
      </trkpt>
      <trkpt lat="43.63121" lon="7.02686">
        <ele>176</ele>
        <time>2021-12-11T17:50:59+01:00</time>
      </trkpt>
      <trkpt lat="43.63085" lon="7.02769">
        <ele>176</ele>
        <time>2021-12-11T17:51:04+01:00</time>
      </trkpt>
      <trkpt lat="43.63063" lon="7.02861">
        <ele>180</ele>
        <time>2021-12-11T17:51:09+01:00</time>
      </trkpt>
      <trkpt lat="43.63048" lon="7.02969">
        <ele>174</ele>
        <time>2021-12-11T17:51:14+01:00</time>
      </trkpt>
      <trkpt lat="43.63056" lon="7.02992">
        <ele>177</ele>
        <time>2021-12-11T17:51:19+01:00</time>
      </trkpt>
      <trkpt lat="43.63058" lon="7.03033">
        <ele>177</ele>
        <time>2021-12-11T17:51:24+01:00</time>
      </trkpt>
      <trkpt lat="43.63091" lon="7.03091">
        <ele>184</ele>
        <time>2021-12-11T17:51:29+01:00</time>
      </trkpt>
      <trkpt lat="43.63104" lon="7.03173">
        <ele>185</ele>
        <time>2021-12-11T17:51:34+01:00</time>
      </trkpt>
      <trkpt lat="43.63163" lon="7.03244">
        <ele>198</ele>
        <time>2021-12-11T17:51:39+01:00</time>
      </trkpt>
      <trkpt lat="43.63169" lon="7.03284">
        <ele>197</ele>
        <time>2021-12-11T17:51:44+01:00</time>
      </trkpt>
      <trkpt lat="43.63159" lon="7.03316">
        <ele>192</ele>
        <time>2021-12-11T17:51:49+01:00</time>
      </trkpt>
      <trkpt lat="43.63168" lon="7.03382">
        <ele>191</ele>
        <time>2021-12-11T17:51:54+01:00</time>
      </trkpt>
      <trkpt lat="43.6315" lon="7.03362">
        <ele>186</ele>
        <time>2021-12-11T17:51:59+01:00</time>
      </trkpt>
      <trkpt lat="43.63153" lon="7.03387">
        <ele>185</ele>
        <time>2021-12-11T17:52:04+01:00</time>
      </trkpt>
      <trkpt lat="43.63168" lon="7.03403">
        <ele>189</ele>
        <time>2021-12-11T17:52:09+01:00</time>
      </trkpt>
      <trkpt lat="43.63168" lon="7.03441">
        <ele>184</ele>
        <time>2021-12-11T17:52:14+01:00</time>
      </trkpt>
      <trkpt lat="43.63221" lon="7.03516">
        <ele>176</ele>
        <time>2021-12-11T17:52:19+01:00</time>
      </trkpt>
      <trkpt lat="43.63216" lon="7.03551">
        <ele>168</ele>
        <time>2021-12-11T17:52:24+01:00</time>
      </trkpt>
      <trkpt lat="43.63246" lon="7.03651">
        <ele>157</ele>
        <time>2021-12-11T17:52:29+01:00</time>
      </trkpt>
      <trkpt lat="43.63267" lon="7.03723">
        <ele>152</ele>
        <time>2021-12-11T17:52:34+01:00</time>
      </trkpt>
      <trkpt lat="43.6324" lon="7.03761">
        <ele>143</ele>
        <time>2021-12-11T17:52:39+01:00</time>
      </trkpt>
      <trkpt lat="43.63255" lon="7.03813">
        <ele>131</ele>
        <time>2021-12-11T17:52:44+01:00</time>
      </trkpt>
      <trkpt lat="43.63274" lon="7.03827">
        <ele>126</ele>
        <time>2021-12-11T17:52:49+01:00</time>
      </trkpt>
      <trkpt lat="43.63246" lon="7.03856">
        <ele>121</ele>
        <time>2021-12-11T17:52:54+01:00</time>
      </trkpt>
      <trkpt lat="43.63258" lon="7.03876">
        <ele>119</ele>
        <time>2021-12-11T17:52:59+01:00</time>
      </trkpt>
      <trkpt lat="43.63323" lon="7.03819">
        <ele>121</ele>
        <time>2021-12-11T17:53:04+01:00</time>
      </trkpt>
      <trkpt lat="43.63399" lon="7.03791">
        <ele>126</ele>
        <time>2021-12-11T17:53:09+01:00</time>
      </trkpt>
      <trkpt lat="43.63432" lon="7.03808">
        <ele>125</ele>
        <time>2021-12-11T17:53:14+01:00</time>
      </trkpt>
      <trkpt lat="43.6346" lon="7.03838">
        <ele>123</ele>
        <time>2021-12-11T17:53:19+01:00</time>
      </trkpt>
      <trkpt lat="43.63498" lon="7.03795">
        <ele>130</ele>
        <time>2021-12-11T17:53:24+01:00</time>
      </trkpt>
      <trkpt lat="43.63531" lon="7.03769">
        <ele>131</ele>
        <time>2021-12-11T17:53:29+01:00</time>
      </trkpt>
      <trkpt lat="43.6353" lon="7.03717">
        <ele>132</ele>
        <time>2021-12-11T17:53:34+01:00</time>
      </trkpt>
      <trkpt lat="43.63519" lon="7.0366">
        <ele>139</ele>
        <time>2021-12-11T17:53:39+01:00</time>
      </trkpt>
      <trkpt lat="43.63535" lon="7.03624">
        <ele>141</ele>
        <time>2021-12-11T17:53:44+01:00</time>
      </trkpt>
      <trkpt lat="43.63575" lon="7.03592">
        <ele>141</ele>
        <time>2021-12-11T17:53:49+01:00</time>
      </trkpt>
      <trkpt lat="43.63598" lon="7.03572">
        <ele>143</ele>
        <time>2021-12-11T17:53:54+01:00</time>
      </trkpt>
      <trkpt lat="43.63606" lon="7.03524">
        <ele>142</ele>
        <time>2021-12-11T17:53:59+01:00</time>
      </trkpt>
      <trkpt lat="43.63603" lon="7.03437">
        <ele>143</ele>
        <time>2021-12-11T17:54:04+01:00</time>
      </trkpt>
      <trkpt lat="43.63617" lon="7.03322">
        <ele>146</ele>
        <time>2021-12-11T17:54:09+01:00</time>
      </trkpt>
      <trkpt lat="43.63656" lon="7.03257">
        <ele>143</ele>
        <time>2021-12-11T17:54:14+01:00</time>
      </trkpt>
      <trkpt lat="43.63672" lon="7.03178">
        <ele>142</ele>
        <time>2021-12-11T17:54:19+01:00</time>
      </trkpt>
      <trkpt lat="43.6365" lon="7.03005">
        <ele>146</ele>
        <time>2021-12-11T17:54:24+01:00</time>
      </trkpt>
      <trkpt lat="43.63665" lon="7.02994">
        <ele>145</ele>
        <time>2021-12-11T17:54:29+01:00</time>
      </trkpt>
      <trkpt lat="43.63657" lon="7.02952">
        <ele>147</ele>
        <time>2021-12-11T17:54:34+01:00</time>
      </trkpt>
      <trkpt lat="43.63704" lon="7.02887">
        <ele>149</ele>
        <time>2021-12-11T17:54:39+01:00</time>
      </trkpt>
      <trkpt lat="43.63782" lon="7.02859">
        <ele>153</ele>
        <time>2021-12-11T17:54:44+01:00</time>
      </trkpt>
      <trkpt lat="43.63818" lon="7.02806">
        <ele>151</ele>
        <time>2021-12-11T17:54:49+01:00</time>
      </trkpt>
      <trkpt lat="43.63868" lon="7.02676">
        <ele>152</ele>
        <time>2021-12-11T17:54:54+01:00</time>
      </trkpt>
      <trkpt lat="43.63847" lon="7.02657">
        <ele>153</ele>
        <time>2021-12-11T17:54:59+01:00</time>
      </trkpt>
      <trkpt lat="43.63823" lon="7.02672">
        <ele>157</ele>
        <time>2021-12-11T17:55:04+01:00</time>
      </trkpt>
      <trkpt lat="43.63809" lon="7.02724">
        <ele>153</ele>
        <time>2021-12-11T17:55:09+01:00</time>
      </trkpt>
      <trkpt lat="43.63793" lon="7.02717">
        <ele>156</ele>
        <time>2021-12-11T17:55:14+01:00</time>
      </trkpt>
      <trkpt lat="43.63795" lon="7.02689">
        <ele>159</ele>
        <time>2021-12-11T17:55:19+01:00</time>
      </trkpt>
      <trkpt lat="43.63823" lon="7.02629">
        <ele>162</ele>
        <time>2021-12-11T17:55:24+01:00</time>
      </trkpt>
      <trkpt lat="43.63748" lon="7.02656">
        <ele>172</ele>
        <time>2021-12-11T17:55:29+01:00</time>
      </trkpt>
      <trkpt lat="43.63658" lon="7.02705">
        <ele>178</ele>
        <time>2021-12-11T17:55:34+01:00</time>
      </trkpt>
      <trkpt lat="43.63624" lon="7.0264">
        <ele>185</ele>
        <time>2021-12-11T17:55:39+01:00</time>
      </trkpt>
      <trkpt lat="43.63602" lon="7.02615">
        <ele>187</ele>
        <time>2021-12-11T17:55:44+01:00</time>
      </trkpt>
      <trkpt lat="43.6352" lon="7.02613">
        <ele>203</ele>
        <time>2021-12-11T17:55:49+01:00</time>
      </trkpt>
      <trkpt lat="43.63414" lon="7.02519">
        <ele>218</ele>
        <time>2021-12-11T17:55:54+01:00</time>
      </trkpt>
      <trkpt lat="43.63435" lon="7.02477">
        <ele>216</ele>
        <time>2021-12-11T17:55:59+01:00</time>
      </trkpt>
      <trkpt lat="43.63425" lon="7.02443">
        <ele>220</ele>
        <time>2021-12-11T17:56:04+01:00</time>
      </trkpt>
      <trkpt lat="43.63388" lon="7.02445">
        <ele>221</ele>
        <time>2021-12-11T17:56:09+01:00</time>
      </trkpt>
      <trkpt lat="43.63347" lon="7.02408">
        <ele>223</ele>
        <time>2021-12-11T17:56:14+01:00</time>
      </trkpt>
      <trkpt lat="43.63385" lon="7.02308">
        <ele>231</ele>
        <time>2021-12-11T17:56:19+01:00</time>
      </trkpt>
      <trkpt lat="43.63411" lon="7.02223">
        <ele>235</ele>
        <time>2021-12-11T17:56:24+01:00</time>
      </trkpt>
      <trkpt lat="43.63524" lon="7.02177">
        <ele>243</ele>
        <time>2021-12-11T17:56:29+01:00</time>
      </trkpt>
      <trkpt lat="43.6363" lon="7.02175">
        <ele>242</ele>
        <time>2021-12-11T17:56:34+01:00</time>
      </trkpt>
      <trkpt lat="43.63629" lon="7.02129">
        <ele>241</ele>
        <time>2021-12-11T17:56:39+01:00</time>
      </trkpt>
      <trkpt lat="43.63601" lon="7.02077">
        <ele>243</ele>
        <time>2021-12-11T17:56:44+01:00</time>
      </trkpt>
      <trkpt lat="43.63594" lon="7.0201">
        <ele>244</ele>
        <time>2021-12-11T17:56:49+01:00</time>
      </trkpt>
      <trkpt lat="43.63572" lon="7.01984">
        <ele>243</ele>
        <time>2021-12-11T17:56:54+01:00</time>
      </trkpt>
      <trkpt lat="43.63586" lon="7.01914">
        <ele>244</ele>
        <time>2021-12-11T17:56:59+01:00</time>
      </trkpt>
      <trkpt lat="43.63618" lon="7.01913">
        <ele>244</ele>
        <time>2021-12-11T17:57:04+01:00</time>
      </trkpt>
      <trkpt lat="43.63688" lon="7.02036">
        <ele>232</ele>
        <time>2021-12-11T17:57:09+01:00</time>
      </trkpt>
      <trkpt lat="43.63691" lon="7.02109">
        <ele>229</ele>
        <time>2021-12-11T17:57:14+01:00</time>
      </trkpt>
      <trkpt lat="43.63749" lon="7.02188">
        <ele>219</ele>
        <time>2021-12-11T17:57:19+01:00</time>
      </trkpt>
      <trkpt lat="43.63799" lon="7.02234">
        <ele>211</ele>
        <time>2021-12-11T17:57:24+01:00</time>
      </trkpt>
      <trkpt lat="43.63821" lon="7.02272">
        <ele>205</ele>
        <time>2021-12-11T17:57:29+01:00</time>
      </trkpt>
      <trkpt lat="43.63805" lon="7.02374">
        <ele>203</ele>
        <time>2021-12-11T17:57:34+01:00</time>
      </trkpt>
      <trkpt lat="43.63751" lon="7.02485">
        <ele>203</ele>
        <time>2021-12-11T17:57:39+01:00</time>
      </trkpt>
      <trkpt lat="43.63621" lon="7.02602">
        <ele>188</ele>
        <time>2021-12-11T17:57:44+01:00</time>
      </trkpt>
      <trkpt lat="43.63627" lon="7.02643">
        <ele>185</ele>
        <time>2021-12-11T17:57:49+01:00</time>
      </trkpt>
      <trkpt lat="43.63553" lon="7.02757">
        <ele>187</ele>
        <time>2021-12-11T17:57:54+01:00</time>
      </trkpt>
      <trkpt lat="43.63491" lon="7.02798">
        <ele>193</ele>
        <time>2021-12-11T17:57:59+01:00</time>
      </trkpt>
      <trkpt lat="43.63498" lon="7.02836">
        <ele>192</ele>
        <time>2021-12-11T17:58:04+01:00</time>
      </trkpt>
      <trkpt lat="43.63521" lon="7.02894">
        <ele>193</ele>
        <time>2021-12-11T17:58:09+01:00</time>
      </trkpt>
      <trkpt lat="43.63518" lon="7.03038">
        <ele>195</ele>
        <time>2021-12-11T17:58:14+01:00</time>
      </trkpt>
      <trkpt lat="43.63515" lon="7.03161">
        <ele>197</ele>
        <time>2021-12-11T17:58:19+01:00</time>
      </trkpt>
      <trkpt lat="43.63494" lon="7.03249">
        <ele>200</ele>
        <time>2021-12-11T17:58:24+01:00</time>
      </trkpt>
      <trkpt lat="43.63364" lon="7.03364">
        <ele>203</ele>
        <time>2021-12-11T17:58:29+01:00</time>
      </trkpt>
      <trkpt lat="43.63252" lon="7.03401">
        <ele>201</ele>
        <time>2021-12-11T17:58:34+01:00</time>
      </trkpt>
      <trkpt lat="43.63213" lon="7.0339">
        <ele>200</ele>
        <time>2021-12-11T17:58:39+01:00</time>
      </trkpt>
      <trkpt lat="43.63196" lon="7.03362">
        <ele>200</ele>
        <time>2021-12-11T17:58:44+01:00</time>
      </trkpt>
      <trkpt lat="43.63202" lon="7.03266">
        <ele>208</ele>
        <time>2021-12-11T17:58:49+01:00</time>
      </trkpt>
      <trkpt lat="43.63229" lon="7.0331">
        <ele>210</ele>
        <time>2021-12-11T17:58:54+01:00</time>
      </trkpt>
      <trkpt lat="43.63288" lon="7.0327">
        <ele>215</ele>
        <time>2021-12-11T17:58:59+01:00</time>
      </trkpt>
      <trkpt lat="43.63352" lon="7.03211">
        <ele>218</ele>
        <time>2021-12-11T17:59:04+01:00</time>
      </trkpt>
      <trkpt lat="43.63398" lon="7.03158">
        <ele>218</ele>
        <time>2021-12-11T17:59:09+01:00</time>
      </trkpt>
      <trkpt lat="43.63423" lon="7.0307">
        <ele>220</ele>
        <time>2021-12-11T17:59:14+01:00</time>
      </trkpt>
      <trkpt lat="43.63425" lon="7.02939">
        <ele>221</ele>
        <time>2021-12-11T17:59:19+01:00</time>
      </trkpt>
      <trkpt lat="43.63392" lon="7.0278">
        <ele>216</ele>
        <time>2021-12-11T17:59:24+01:00</time>
      </trkpt>
      <trkpt lat="43.63395" lon="7.02741">
        <ele>215</ele>
        <time>2021-12-11T17:59:29+01:00</time>
      </trkpt>
      <trkpt lat="43.63434" lon="7.02671">
        <ele>212</ele>
        <time>2021-12-11T17:59:34+01:00</time>
      </trkpt>
      <trkpt lat="43.63434" lon="7.026">
        <ele>214</ele>
        <time>2021-12-11T17:59:39+01:00</time>
      </trkpt>
      <trkpt lat="43.63415" lon="7.02519">
        <ele>218</ele>
        <time>2021-12-11T17:59:44+01:00</time>
      </trkpt>
      <trkpt lat="43.63147" lon="7.0254">
        <ele>174</ele>
        <time>2021-12-11T17:59:49+01:00</time>
      </trkpt>
      <trkpt lat="43.63113" lon="7.02469">
        <ele>174</ele>
        <time>2021-12-11T17:59:54+01:00</time>
      </trkpt>
      <trkpt lat="43.63106" lon="7.02431">
        <ele>177</ele>
        <time>2021-12-11T17:59:59+01:00</time>
      </trkpt>
    </trkseg>
  </trk>
</gpx>